createdAt,value
2018-09-09T00:00:14.467Z,99.90
2018-09-09T00:02:42.833Z,99.90
2018-09-09T00:05:11.144Z,99.90
2018-09-09T00:07:39.414Z,99.90
2018-09-09T00:10:07.658Z,99.90
2018-09-09T00:12:35.978Z,99.90
2018-09-09T00:15:04.249Z,99.90
2018-09-09T00:17:32.537Z,99.90
2018-09-09T00:20:00.860Z,99.90
2018-09-09T00:22:29.220Z,99.90
2018-09-09T00:24:57.567Z,99.90
2018-09-09T00:27:26.859Z,99.90
2018-09-09T00:29:55.138Z,99.90
2018-09-09T00:32:23.474Z,99.90
2018-09-09T00:34:51.726Z,99.90
2018-09-09T00:37:20.056Z,99.90
2018-09-09T00:39:48.313Z,99.90
2018-09-09T00:42:16.569Z,99.90
2018-09-09T00:44:44.851Z,99.90
2018-09-09T00:47:13.183Z,99.90
2018-09-09T00:49:46.864Z,99.90
2018-09-09T00:52:20.646Z,99.90
2018-09-09T00:54:48.932Z,99.90
2018-09-09T00:57:17.159Z,99.90
2018-09-09T00:59:45.459Z,99.90
2018-09-09T01:02:13.738Z,99.90
2018-09-09T01:04:42.005Z,99.90
2018-09-09T01:07:10.298Z,99.90
2018-09-09T01:09:38.566Z,99.90
2018-09-09T01:12:06.833Z,99.90
2018-09-09T01:14:35.630Z,99.90
2018-09-09T01:17:04.028Z,99.90
2018-09-09T01:19:32.342Z,99.90
2018-09-09T01:22:00.631Z,99.90
2018-09-09T01:24:28.898Z,99.90
2018-09-09T01:26:57.200Z,99.90
2018-09-09T01:29:25.459Z,99.90
2018-09-09T01:31:53.742Z,99.90
2018-09-09T01:34:22.065Z,99.90
2018-09-09T01:36:50.320Z,99.90
2018-09-09T01:39:18.596Z,99.90
2018-09-09T01:41:46.824Z,99.90
2018-09-09T01:44:15.099Z,99.90
2018-09-09T01:46:43.382Z,99.90
2018-09-09T01:49:11.648Z,99.90
2018-09-09T01:51:40.856Z,99.90
2018-09-09T01:54:09.084Z,99.90
2018-09-09T01:56:37.613Z,99.90
2018-09-09T01:59:05.855Z,99.90
2018-09-09T02:01:34.126Z,99.90
2018-09-09T02:04:02.409Z,99.90
2018-09-09T02:06:30.680Z,99.90
2018-09-09T02:08:58.959Z,99.90
2018-09-09T02:11:27.208Z,99.90
2018-09-09T02:13:55.450Z,99.90
2018-09-09T02:16:23.688Z,99.90
2018-09-09T02:18:51.947Z,99.90
2018-09-09T02:21:20.235Z,99.90
2018-09-09T02:26:23.094Z,99.90
2018-09-09T02:28:51.363Z,99.90
2018-09-09T02:31:19.725Z,99.90
2018-09-09T02:33:48.061Z,99.90
2018-09-09T02:36:16.318Z,99.90
2018-09-09T02:38:44.575Z,99.90
2018-09-09T02:41:12.919Z,99.90
2018-09-09T02:43:41.374Z,99.90
2018-09-09T02:46:09.615Z,99.90
2018-09-09T02:48:37.891Z,99.90
2018-09-09T02:51:06.541Z,99.90
2018-09-09T02:53:34.810Z,99.90
2018-09-09T02:56:07.306Z,99.90
2018-09-09T02:58:42.430Z,99.90
2018-09-09T03:01:10.676Z,99.90
2018-09-09T03:03:38.916Z,99.90
2018-09-09T03:06:07.185Z,99.90
2018-09-09T03:08:35.477Z,99.90
2018-09-09T03:11:09.052Z,99.90
2018-09-09T03:13:37.367Z,99.90
2018-09-09T03:16:05.601Z,99.90
2018-09-09T03:18:33.842Z,99.90
2018-09-09T03:21:02.048Z,99.90
2018-09-09T03:23:30.716Z,99.90
2018-09-09T03:25:59.595Z,99.90
2018-09-09T03:28:27.889Z,99.90
2018-09-09T03:30:56.206Z,99.90
2018-09-09T03:33:24.497Z,99.90
2018-09-09T03:35:52.895Z,99.90
2018-09-09T03:38:21.911Z,99.90
2018-09-09T03:40:50.706Z,99.90
2018-09-09T03:43:18.972Z,99.90
2018-09-09T03:45:48.246Z,99.90
2018-09-09T03:48:16.498Z,99.90
2018-09-09T03:50:51.353Z,99.90
2018-09-09T03:53:19.608Z,99.90
2018-09-09T03:55:47.927Z,99.90
2018-09-09T03:58:16.203Z,99.90
2018-09-09T04:00:44.483Z,99.90
2018-09-09T04:03:12.755Z,99.90
2018-09-09T04:05:41.035Z,99.90
2018-09-09T04:08:09.253Z,99.90
2018-09-09T04:10:37.518Z,99.90
2018-09-09T04:13:05.889Z,99.90
2018-09-09T04:15:34.184Z,99.90
2018-09-09T04:18:02.465Z,99.90
2018-09-09T04:20:30.715Z,99.90
2018-09-09T04:22:58.956Z,99.90
2018-09-09T04:25:27.188Z,99.90
2018-09-09T04:27:55.391Z,99.90
2018-09-09T04:30:23.674Z,99.90
2018-09-09T04:32:51.869Z,99.90
2018-09-09T04:35:20.107Z,99.90
2018-09-09T04:37:48.358Z,99.90
2018-09-09T04:40:16.557Z,99.90
2018-09-09T04:42:44.906Z,99.90
2018-09-09T04:45:13.202Z,99.90
2018-09-09T04:47:41.554Z,99.90
2018-09-09T04:50:09.887Z,99.90
2018-09-09T04:52:38.537Z,99.90
2018-09-09T04:55:06.858Z,99.90
2018-09-09T04:57:35.163Z,99.90
2018-09-09T05:00:03.437Z,99.90
2018-09-09T05:02:31.715Z,99.90
2018-09-09T05:04:59.979Z,99.90
2018-09-09T05:07:28.244Z,99.90
2018-09-09T05:09:56.493Z,99.90
2018-09-09T05:12:24.700Z,99.90
2018-09-09T05:14:52.945Z,99.90
2018-09-09T05:17:21.211Z,99.90
2018-09-09T05:19:49.528Z,99.90
2018-09-09T05:22:17.744Z,99.90
2018-09-09T05:24:46.171Z,99.90
2018-09-09T05:27:14.510Z,99.90
2018-09-09T05:29:42.775Z,99.90
2018-09-09T05:32:17.584Z,99.90
2018-09-09T05:34:46.092Z,99.90
2018-09-09T05:37:14.402Z,99.90
2018-09-09T05:39:42.739Z,99.90
2018-09-09T05:42:11.011Z,99.90
2018-09-09T05:44:39.243Z,99.90
2018-09-09T05:47:07.495Z,99.90
2018-09-09T05:49:35.744Z,99.90
2018-09-09T05:52:04.000Z,99.90
2018-09-09T05:54:32.304Z,99.90
2018-09-09T05:57:00.561Z,99.90
2018-09-09T05:59:28.804Z,99.90
2018-09-09T06:01:57.085Z,99.90
2018-09-09T06:04:25.390Z,99.90
2018-09-09T06:06:53.606Z,99.90
2018-09-09T06:09:21.872Z,99.90
2018-09-09T06:11:50.816Z,99.90
2018-09-09T06:14:19.077Z,99.90
2018-09-09T06:16:47.378Z,99.90
2018-09-09T06:19:15.579Z,99.90
2018-09-09T06:21:43.856Z,99.90
2018-09-09T06:24:12.147Z,99.90
2018-09-09T06:26:40.383Z,99.90
2018-09-09T06:29:08.616Z,99.90
2018-09-09T06:31:36.913Z,99.90
2018-09-09T06:34:05.199Z,99.90
2018-09-09T06:36:33.472Z,99.90
2018-09-09T06:39:01.844Z,99.90
2018-09-09T06:41:30.068Z,99.90
2018-09-09T06:43:58.403Z,99.90
2018-09-09T06:46:26.741Z,99.90
2018-09-09T06:48:55.010Z,99.90
2018-09-09T06:51:23.373Z,99.90
2018-09-09T06:53:51.625Z,99.90
2018-09-09T06:56:19.901Z,99.90
2018-09-09T06:58:48.150Z,99.90
2018-09-09T07:01:16.504Z,99.90
2018-09-09T07:03:44.764Z,99.90
2018-09-09T07:06:13.022Z,99.90
2018-09-09T07:08:41.310Z,99.90
2018-09-09T07:11:09.638Z,99.90
2018-09-09T07:13:37.871Z,99.90
2018-09-09T07:16:06.144Z,99.90
2018-09-09T07:18:34.540Z,99.70
2018-09-09T07:21:03.830Z,99.30
2018-09-09T07:23:32.087Z,99.20
2018-09-09T07:26:00.364Z,99.10
2018-09-09T07:28:28.626Z,99.00
2018-09-09T07:30:56.919Z,99.10
2018-09-09T07:33:25.215Z,99.10
2018-09-09T07:35:53.793Z,98.80
2018-09-09T07:38:21.982Z,98.60
2018-09-09T07:40:50.245Z,98.30
2018-09-09T07:43:18.484Z,98.10
2018-09-09T07:45:46.753Z,98.40
2018-09-09T07:48:15.023Z,98.30
2018-09-09T07:50:43.340Z,98.20
2018-09-09T07:53:11.615Z,98.30
2018-09-09T07:55:39.923Z,98.40
2018-09-09T07:58:08.245Z,98.30
2018-09-09T08:00:36.547Z,98.50
2018-09-09T08:03:04.804Z,98.40
2018-09-09T08:05:33.151Z,98.40
2018-09-09T08:08:01.490Z,98.20
2018-09-09T08:10:29.808Z,98.40
2018-09-09T08:12:58.090Z,98.50
2018-09-09T08:15:26.341Z,98.30
2018-09-09T08:17:54.571Z,98.50
2018-09-09T08:20:22.813Z,98.30
2018-09-09T08:22:51.093Z,98.10
2018-09-09T08:25:19.521Z,98.10
2018-09-09T08:27:47.822Z,97.60
2018-09-09T08:30:17.176Z,97.50
2018-09-09T08:32:45.808Z,97.50
2018-09-09T08:35:14.103Z,97.50
2018-09-09T08:37:42.346Z,97.00
2018-09-09T08:40:10.611Z,97.30
2018-09-09T08:42:38.887Z,97.00
2018-09-09T08:45:07.100Z,96.90
2018-09-09T08:47:35.339Z,96.80
2018-09-09T08:50:03.677Z,96.80
2018-09-09T08:52:31.968Z,96.90
2018-09-09T08:55:00.272Z,96.90
2018-09-09T08:57:28.628Z,96.80
2018-09-09T08:59:56.871Z,96.80
2018-09-09T09:02:25.991Z,96.70
2018-09-09T09:04:54.260Z,96.30
2018-09-09T09:07:22.577Z,96.20
2018-09-09T09:09:50.896Z,96.50
2018-09-09T09:12:19.187Z,96.50
2018-09-09T09:14:47.498Z,96.00
2018-09-09T09:17:15.700Z,96.10
2018-09-09T09:19:43.935Z,96.10
2018-09-09T09:22:12.245Z,96.00
2018-09-09T09:24:40.575Z,96.00
2018-09-09T09:27:08.881Z,96.20
2018-09-09T09:29:42.672Z,96.10
2018-09-09T09:32:10.925Z,96.00
2018-09-09T09:34:39.204Z,95.70
2018-09-09T09:37:07.527Z,95.80
2018-09-09T09:39:36.004Z,95.60
2018-09-09T09:42:04.254Z,95.60
2018-09-09T09:44:32.510Z,95.50
2018-09-09T09:47:00.764Z,95.90
2018-09-09T09:49:29.056Z,95.50
2018-09-09T09:51:57.362Z,95.20
2018-09-09T09:54:25.647Z,95.10
2018-09-09T09:56:53.892Z,95.30
2018-09-09T09:59:22.208Z,95.00
2018-09-09T10:01:50.455Z,94.90
2018-09-09T10:04:18.732Z,94.90
2018-09-09T10:06:46.984Z,94.70
2018-09-09T10:09:15.543Z,95.20
2018-09-09T10:11:43.841Z,94.80
2018-09-09T10:14:12.115Z,94.70
2018-09-09T10:16:40.404Z,94.90
2018-09-09T10:19:08.799Z,95.20
2018-09-09T10:21:37.073Z,94.80
2018-09-09T10:24:05.361Z,94.40
2018-09-09T10:26:33.914Z,94.30
2018-09-09T10:29:02.449Z,94.40
2018-09-09T10:31:30.692Z,94.50
2018-09-09T10:33:58.969Z,94.70
2018-09-09T10:36:27.222Z,94.60
2018-09-09T10:38:55.490Z,94.10
2018-09-09T10:41:23.797Z,94.40
2018-09-09T10:43:52.142Z,93.70
2018-09-09T10:46:20.583Z,93.80
2018-09-09T10:48:48.957Z,93.30
2018-09-09T10:51:17.261Z,93.70
2018-09-09T10:53:45.474Z,93.80
2018-09-09T10:56:13.761Z,93.60
2018-09-09T10:58:42.062Z,93.40
2018-09-09T11:01:10.356Z,93.40
2018-09-09T11:03:38.706Z,93.40
2018-09-09T11:06:07.068Z,92.90
2018-09-09T11:08:35.294Z,91.80
2018-09-09T11:11:03.533Z,91.60
2018-09-09T11:13:31.780Z,91.60
2018-09-09T11:16:00.056Z,91.80
2018-09-09T11:18:28.387Z,92.00
2018-09-09T11:20:56.712Z,92.00
2018-09-09T11:23:24.993Z,91.50
2018-09-09T11:25:53.219Z,91.30
2018-09-09T11:28:21.492Z,91.30
2018-09-09T11:30:49.815Z,91.50
2018-09-09T11:33:18.097Z,91.40
2018-09-09T11:35:46.382Z,91.50
2018-09-09T11:38:14.820Z,91.40
2018-09-09T11:40:43.136Z,91.30
2018-09-09T11:43:11.400Z,91.60
2018-09-09T11:45:39.688Z,91.50
2018-09-09T11:48:08.011Z,91.70
2018-09-09T11:50:36.265Z,92.00
2018-09-09T11:53:04.582Z,91.80
2018-09-09T11:55:32.861Z,91.80
2018-09-09T11:58:01.119Z,91.90
2018-09-09T12:00:29.368Z,91.20
2018-09-09T12:02:57.667Z,91.40
2018-09-09T12:05:25.947Z,91.50
2018-09-09T12:07:54.276Z,91.80
2018-09-09T12:10:22.555Z,91.50
2018-09-09T12:12:50.945Z,91.50
2018-09-09T12:15:19.636Z,91.70
2018-09-09T12:17:47.946Z,91.20
2018-09-09T12:20:16.172Z,91.10
2018-09-09T12:22:44.387Z,91.40
2018-09-09T12:25:12.658Z,91.60
2018-09-09T12:27:40.930Z,91.40
2018-09-09T12:30:09.167Z,91.30
2018-09-09T12:32:37.464Z,91.30
2018-09-09T12:35:05.950Z,91.30
2018-09-09T12:37:34.271Z,91.60
2018-09-09T12:40:02.467Z,91.30
2018-09-09T12:42:30.759Z,90.20
2018-09-09T12:45:04.482Z,90.20
2018-09-09T12:47:38.227Z,90.00
2018-09-09T12:50:06.518Z,89.30
2018-09-09T12:52:34.814Z,89.30
2018-09-09T12:55:03.105Z,90.10
2018-09-09T12:57:31.411Z,90.00
2018-09-09T12:59:59.887Z,90.20
2018-09-09T13:02:28.257Z,90.40
2018-09-09T13:04:56.580Z,90.50
2018-09-09T13:07:24.982Z,90.30
2018-09-09T13:09:53.179Z,90.00
2018-09-09T13:12:21.552Z,90.00
2018-09-09T13:14:49.808Z,89.20
2018-09-09T13:17:18.052Z,89.60
2018-09-09T13:19:46.327Z,89.90
2018-09-09T13:22:14.560Z,89.30
2018-09-09T13:24:42.879Z,88.20
2018-09-09T13:27:11.188Z,88.50
2018-09-09T13:29:39.439Z,88.90
2018-09-09T13:32:07.971Z,88.20
2018-09-09T13:34:36.251Z,88.70
2018-09-09T13:37:04.577Z,88.40
2018-09-09T13:39:32.883Z,88.70
2018-09-09T13:42:01.133Z,88.90
2018-09-09T13:44:29.410Z,88.50
2018-09-09T13:46:57.669Z,88.60
2018-09-09T13:49:25.924Z,88.60
2018-09-09T13:51:54.200Z,88.80
2018-09-09T13:54:22.653Z,88.20
2018-09-09T13:56:50.845Z,88.60
2018-09-09T13:59:19.208Z,88.20
2018-09-09T14:01:47.486Z,87.90
2018-09-09T14:04:15.752Z,87.20
2018-09-09T14:06:44.093Z,87.10
2018-09-09T14:09:12.473Z,86.00
2018-09-09T14:11:40.744Z,86.30
2018-09-09T14:14:09.116Z,86.90
2018-09-09T14:16:37.353Z,86.90
2018-09-09T14:19:05.592Z,87.10
2018-09-09T14:21:33.942Z,87.10
2018-09-09T14:24:02.202Z,87.50
2018-09-09T14:26:30.536Z,88.30
2018-09-09T14:28:58.823Z,87.20
2018-09-09T14:31:27.091Z,86.60
2018-09-09T14:33:55.344Z,86.70
2018-09-09T14:36:23.580Z,87.10
2018-09-09T14:38:51.867Z,87.90
2018-09-09T14:41:20.141Z,88.40
2018-09-09T14:43:48.544Z,88.20
2018-09-09T14:46:16.858Z,88.40
2018-09-09T14:48:45.391Z,88.70
2018-09-09T14:51:13.609Z,88.50
2018-09-09T14:53:41.891Z,88.60
2018-09-09T14:56:10.198Z,88.90
2018-09-09T14:58:38.482Z,89.20
2018-09-09T15:01:06.720Z,88.70
2018-09-09T15:03:35.005Z,88.60
2018-09-09T15:06:03.308Z,88.20
2018-09-09T15:08:31.567Z,88.50
2018-09-09T15:10:59.828Z,88.50
2018-09-09T15:13:28.095Z,88.10
2018-09-09T15:15:56.597Z,88.10
2018-09-09T15:18:24.896Z,87.80
2018-09-09T15:20:53.157Z,88.40
2018-09-09T15:23:21.469Z,88.70
2018-09-09T15:25:49.701Z,88.60
2018-09-09T15:28:17.987Z,88.30
2018-09-09T15:30:46.243Z,88.30
2018-09-09T15:33:14.490Z,87.60
2018-09-09T15:35:42.765Z,87.30
2018-09-09T15:38:11.010Z,87.50
2018-09-09T15:40:39.267Z,86.80
2018-09-09T15:43:07.523Z,87.30
2018-09-09T15:45:35.832Z,87.10
2018-09-09T15:48:04.116Z,87.30
2018-09-09T15:50:32.386Z,87.50
2018-09-09T15:53:00.654Z,88.50
2018-09-09T15:55:29.013Z,88.60
2018-09-09T15:57:57.910Z,89.00
2018-09-09T16:00:26.213Z,89.20
2018-09-09T16:02:55.316Z,89.10
2018-09-09T16:05:23.582Z,89.50
2018-09-09T16:07:51.835Z,90.10
2018-09-09T16:10:20.164Z,90.00
2018-09-09T16:12:48.462Z,90.10
2018-09-09T16:15:16.716Z,90.00
2018-09-09T16:17:45.011Z,90.00
2018-09-09T16:20:13.298Z,90.30
2018-09-09T16:22:41.565Z,90.20
2018-09-09T16:25:09.807Z,90.20
2018-09-09T16:27:38.056Z,90.40
2018-09-09T16:30:07.452Z,90.60
2018-09-09T16:32:35.776Z,90.50
2018-09-09T16:35:04.106Z,90.50
2018-09-09T16:37:32.423Z,90.40
2018-09-09T16:40:00.822Z,90.80
2018-09-09T16:42:29.089Z,90.80
2018-09-09T16:44:57.359Z,90.90
2018-09-09T16:47:25.614Z,90.80
2018-09-09T16:49:53.872Z,90.70
2018-09-09T16:52:23.018Z,90.60
2018-09-09T16:54:51.307Z,90.80
2018-09-09T16:57:19.721Z,90.80
2018-09-09T16:59:47.990Z,91.20
2018-09-09T17:02:16.252Z,91.20
2018-09-09T17:04:44.516Z,91.20
2018-09-09T17:07:12.794Z,91.40
2018-09-09T17:09:41.116Z,91.80
2018-09-09T17:12:09.560Z,91.30
2018-09-09T17:14:37.873Z,91.30
2018-09-09T17:17:06.223Z,91.60
2018-09-09T17:19:34.546Z,91.60
2018-09-09T17:22:02.813Z,91.60
2018-09-09T17:24:31.176Z,91.50
2018-09-09T17:26:59.437Z,91.70
2018-09-09T17:29:27.695Z,91.80
2018-09-09T17:31:55.940Z,91.70
2018-09-09T17:34:24.249Z,91.70
2018-09-09T17:36:52.504Z,92.00
2018-09-09T17:39:20.805Z,91.90
2018-09-09T17:41:49.086Z,91.80
2018-09-09T17:44:17.399Z,92.00
2018-09-09T17:46:45.637Z,92.00
2018-09-09T17:49:13.996Z,92.10
2018-09-09T17:51:42.333Z,92.10
2018-09-09T17:54:10.573Z,92.30
2018-09-09T17:56:38.890Z,92.50
2018-09-09T17:59:07.214Z,92.70
2018-09-09T18:01:35.583Z,92.90
2018-09-09T18:04:03.855Z,92.80
2018-09-09T18:06:32.127Z,92.90
2018-09-09T18:09:00.433Z,92.80
2018-09-09T18:11:28.686Z,93.10
2018-09-09T18:13:56.925Z,93.10
2018-09-09T18:16:25.177Z,93.10
2018-09-09T18:18:53.517Z,93.20
2018-09-09T18:21:21.790Z,93.20
2018-09-09T18:23:50.187Z,93.70
2018-09-09T18:26:18.607Z,93.50
2018-09-09T18:28:46.934Z,93.80
2018-09-09T18:31:15.208Z,93.90
2018-09-09T18:33:43.529Z,94.10
2018-09-09T18:36:11.761Z,94.20
2018-09-09T18:38:40.076Z,94.40
2018-09-09T18:41:08.280Z,94.50
2018-09-09T18:43:36.634Z,94.70
2018-09-09T18:46:04.980Z,94.90
2018-09-09T18:48:33.325Z,95.10
2018-09-09T18:51:01.625Z,95.30
2018-09-09T18:53:31.186Z,95.70
2018-09-09T18:55:59.455Z,95.40
2018-09-09T18:58:27.845Z,95.60
2018-09-09T19:00:56.273Z,95.60
2018-09-09T19:03:24.602Z,95.70
2018-09-09T19:05:53.013Z,95.80
2018-09-09T19:08:21.296Z,96.00
2018-09-09T19:10:49.559Z,96.10
2018-09-09T19:13:17.828Z,96.20
2018-09-09T19:15:46.126Z,96.20
2018-09-09T19:18:14.373Z,96.40
2018-09-09T19:20:42.751Z,96.40
2018-09-09T19:23:11.090Z,96.50
2018-09-09T19:25:39.841Z,96.60
2018-09-09T19:28:08.123Z,97.00
2018-09-09T19:30:36.480Z,96.80
2018-09-09T19:33:04.995Z,96.70
2018-09-09T19:35:33.324Z,96.70
2018-09-09T19:38:01.600Z,97.00
2018-09-09T19:40:30.031Z,97.10
2018-09-09T19:42:58.324Z,97.40
2018-09-09T19:45:26.636Z,97.40
2018-09-09T19:47:54.888Z,97.50
2018-09-09T19:50:23.167Z,97.50
2018-09-09T19:52:51.467Z,97.80
2018-09-09T19:55:19.778Z,97.70
2018-09-09T19:57:49.273Z,97.80
2018-09-09T20:00:17.530Z,98.00
2018-09-09T20:02:46.537Z,98.10
2018-09-09T20:05:14.826Z,98.20
2018-09-09T20:07:43.236Z,98.50
2018-09-09T20:10:11.557Z,98.40
2018-09-09T20:12:39.914Z,98.70
2018-09-09T20:15:08.601Z,98.40
2018-09-09T20:17:36.892Z,98.40
2018-09-09T20:20:05.650Z,98.50
2018-09-09T20:22:33.910Z,98.50
2018-09-09T20:25:02.183Z,98.70
2018-09-09T20:27:30.463Z,98.60
2018-09-09T20:29:58.764Z,98.70
2018-09-09T20:32:27.066Z,98.90
2018-09-09T20:34:55.300Z,98.90
2018-09-09T20:37:23.568Z,98.80
2018-09-09T20:39:51.834Z,99.00
2018-09-09T20:42:20.110Z,98.90
2018-09-09T20:44:48.381Z,98.90
2018-09-09T20:47:16.675Z,99.60
2018-09-09T20:49:45.032Z,99.80
2018-09-09T20:52:13.359Z,99.90
2018-09-09T20:54:41.702Z,99.60
2018-09-09T20:57:09.990Z,99.70
2018-09-09T20:59:38.262Z,99.70
2018-09-09T21:02:06.506Z,99.80
2018-09-09T21:04:34.808Z,99.90
2018-09-09T21:07:03.124Z,99.90
2018-09-09T21:09:31.501Z,99.90
2018-09-09T21:11:59.649Z,99.90
2018-09-09T21:14:27.998Z,99.90
2018-09-09T21:16:56.308Z,99.90
2018-09-09T21:19:24.584Z,99.90
2018-09-09T21:21:52.968Z,99.90
2018-09-09T21:24:21.264Z,99.90
2018-09-09T21:26:49.549Z,99.90
2018-09-09T21:29:18.019Z,99.90
2018-09-09T21:31:46.303Z,99.90
2018-09-09T21:34:14.680Z,99.90
2018-09-09T21:36:42.959Z,99.90
2018-09-09T21:39:11.976Z,99.90
2018-09-09T21:41:40.986Z,99.90
2018-09-09T21:44:09.356Z,99.90
2018-09-09T21:46:37.595Z,99.90
2018-09-09T21:49:06.110Z,99.90
2018-09-09T21:51:34.340Z,99.90
2018-09-09T21:54:02.593Z,99.90
2018-09-09T21:56:30.866Z,99.90
2018-09-09T21:58:59.178Z,99.90
2018-09-09T22:01:32.750Z,99.90
2018-09-09T22:04:01.119Z,99.90
2018-09-09T22:06:29.421Z,99.90
2018-09-09T22:08:58.500Z,99.90
2018-09-09T22:11:26.930Z,99.90
2018-09-09T22:13:55.946Z,99.90
2018-09-09T22:16:24.491Z,99.90
2018-09-09T22:18:52.753Z,99.90
2018-09-09T22:21:21.028Z,99.90
2018-09-09T22:23:49.385Z,99.90
2018-09-09T22:26:17.939Z,99.90
2018-09-09T22:28:46.918Z,99.90
2018-09-09T22:31:15.160Z,99.90
2018-09-09T22:33:43.395Z,99.90
2018-09-09T22:36:11.748Z,99.90
2018-09-09T22:38:40.033Z,99.90
2018-09-09T22:41:08.310Z,99.90
2018-09-09T22:43:36.561Z,99.90
2018-09-09T22:46:05.964Z,99.90
2018-09-09T22:48:34.328Z,99.90
2018-09-09T22:51:02.633Z,99.90
2018-09-09T22:53:30.943Z,99.90
2018-09-09T22:55:59.204Z,99.90
2018-09-09T22:58:27.482Z,99.90
2018-09-09T23:00:55.876Z,99.90
2018-09-09T23:03:24.165Z,99.90
2018-09-09T23:05:52.416Z,99.90
2018-09-09T23:08:20.696Z,99.90
2018-09-09T23:10:49.073Z,99.90
2018-09-09T23:13:17.348Z,99.90
2018-09-09T23:15:45.621Z,99.90
2018-09-09T23:18:13.860Z,99.90
2018-09-09T23:20:42.106Z,99.90
2018-09-09T23:23:10.418Z,99.90
2018-09-09T23:25:38.689Z,99.90
2018-09-09T23:28:07.006Z,99.90
2018-09-09T23:30:35.242Z,99.90
2018-09-09T23:33:03.488Z,99.90
2018-09-09T23:35:31.716Z,99.90
2018-09-09T23:37:59.982Z,99.90
2018-09-09T23:40:28.339Z,99.90
2018-09-09T23:42:56.592Z,99.90
2018-09-09T23:45:24.971Z,99.90
2018-09-09T23:47:53.256Z,99.90
2018-09-09T23:50:21.527Z,99.90
2018-09-09T23:52:49.916Z,99.90
2018-09-09T23:55:18.332Z,99.90
2018-09-09T23:57:46.586Z,99.90
